Hulbert, Michigan
Current Conditions -  °F | °C
As of 6:54 AM on Thursday 23 Oct 2014 (Local Time) from KERY Reporting Station
Haze Haze  
Wind Chill: 27°   Ceiling: Unl
Heat Index: 33°   Visibility: 4mi
Dew Point: 33°   Wind: 8mph
Humidity: 99%   Direction: 250°WSW
Pressure: 30.19"   Gusts: NA
Location:  46.35°N, 85.15°W
Report Text: KERY 231054Z AUTO 25007KT 4SM BR CLR 01/01 A3019 RMK AO2 T00080007
Loading
Personal Weather Stations






























Interactive Weather Map
Tropical Storm Tracking
New forecast layout! Learn more

10-Day Weather Forecast

Advertisements
Track Severe Weather on mobile